Time;durP1;ratioP1;P1;durP2;ratioP2;P2;SDS_P1;SDS_P2;PMS_P1;PMS_P2;Temp;Humidity;BMP_temperature;BMP_pressure;BME280_temperature;BME280_humidity;BME280_pressure;Samples;Min_cycle;Max_cycle;Signal;HPM_P1;HPM_P2
2022/07/18 00:01:47;;;;;;;6.38;5.78;;;;;;;15.76;75.62;102505.50;5119360;28;20125;-75
2022/07/18 00:04:13;;;;;;;8.35;6.30;;;;;;;15.71;75.28;102501.44;5119591;28;20056;-74
2022/07/18 00:06:40;;;;;;;7.97;6.00;;;;;;;15.63;75.49;102511.63;5119647;28;20489;-74
2022/07/18 00:09:07;;;;;;;6.30;5.43;;;;;;;15.55;75.95;102504.97;5119729;28;20036;-74
2022/07/18 00:11:33;;;;;;;9.57;6.20;;;;;;;15.51;75.42;102507.03;5101868;28;20048;-75
2022/07/18 00:14:00;;;;;;;8.30;6.00;;;;;;;15.44;75.92;102503.81;5119524;28;20079;-75
2022/07/18 00:16:26;;;;;;;6.45;5.85;;;;;;;15.40;76.61;102501.22;5119009;28;20089;-74
2022/07/18 00:18:54;;;;;;;7.95;5.95;;;;;;;15.35;76.29;102497.16;5119030;27;20051;-74
2022/07/18 00:21:21;;;;;;;8.38;6.10;;;;;;;15.35;75.91;102496.38;5118878;28;20044;-75
2022/07/18 00:23:47;;;;;;;8.82;6.28;;;;;;;15.29;76.75;102500.78;5119648;28;20048;-74
2022/07/18 00:26:14;;;;;;;6.20;5.70;;;;;;;15.22;76.99;102499.06;5101224;28;20044;-75
2022/07/18 00:28:40;;;;;;;9.15;6.15;;;;;;;15.20;76.34;102493.38;5119732;28;20040;-74
2022/07/18 00:31:07;;;;;;;6.63;5.85;;;;;;;15.13;77.28;102490.19;5119058;28;20622;-74
2022/07/18 00:33:33;;;;;;;7.78;6.50;;;;;;;15.04;77.29;102493.50;5119433;28;20482;-75
2022/07/18 00:36:00;;;;;;;7.00;6.30;;;;;;;15.00;77.58;102493.59;5119499;28;20079;-74
2022/07/18 00:38:27;;;;;;;16.38;6.53;;;;;;;14.99;77.17;102488.66;5119328;28;20055;-74
2022/07/18 00:40:53;;;;;;;7.90;6.30;;;;;;;14.97;76.83;102485.66;5119136;28;20083;-74
2022/07/18 00:43:20;;;;;;;7.03;5.80;;;;;;;14.94;76.93;102481.13;5119103;28;20109;-74
2022/07/18 00:45:49;;;;;;;7.50;6.25;;;;;;;14.90;76.97;102475.88;5118938;28;20052;-74
2022/07/18 00:48:16;;;;;;;6.70;5.95;;;;;;;14.86;77.01;102479.84;5119160;28;20047;-74
2022/07/18 00:50:43;;;;;;;10.93;6.22;;;;;;;14.85;76.89;102478.31;5119347;28;20063;-74
2022/07/18 00:53:11;;;;;;;8.18;6.07;;;;;;;14.73;77.61;102473.72;5119033;28;20056;-74
2022/07/18 00:55:38;;;;;;;7.22;6.40;;;;;;;14.68;77.74;102472.31;5119152;28;20052;-74
2022/07/18 00:58:05;;;;;;;7.22;6.03;;;;;;;14.66;77.28;102470.06;5118756;28;20047;-74
2022/07/18 01:03:17;;;;;;;7.55;6.05;;;;;;;14.55;77.60;102477.63;5118881;28;20048;-74
2022/07/18 01:05:44;;;;;;;7.65;6.50;;;;;;;14.53;77.19;102477.31;5119043;28;20048;-74
2022/07/18 01:08:10;;;;;;;8.57;6.50;;;;;;;14.51;76.97;102478.91;5118711;28;20054;-74
2022/07/18 01:10:37;;;;;;;8.30;6.07;;;;;;;14.44;77.17;102476.41;5095406;28;20067;-71
2022/07/18 01:13:04;;;;;;;7.78;5.85;;;;;;;14.41;77.51;102472.66;5098390;28;20056;-74
2022/07/18 01:15:30;;;;;;;7.63;6.60;;;;;;;14.39;77.51;102472.31;5080405;28;20048;-74
2022/07/18 01:17:57;;;;;;;6.93;5.72;;;;;;;14.34;77.87;102481.63;5098389;28;20049;-74
2022/07/18 01:20:30;;;;;;;8.98;6.53;;;;;;;14.33;77.28;102469.41;5098008;28;20053;-74
2022/07/18 01:23:00;;;;;;;7.03;5.97;;;;;;;14.33;76.83;102468.66;5098091;28;20505;-74
2022/07/18 01:25:27;;;;;;;7.65;6.38;;;;;;;14.30;77.57;102469.50;5097677;28;20044;-74
2022/07/18 01:27:55;;;;;;;6.57;5.97;;;;;;;14.28;78.16;102469.16;5098081;28;20055;-74
2022/07/18 01:30:22;;;;;;;10.38;6.05;;;;;;;14.21;78.04;102470.09;5097923;28;20044;-74
2022/07/18 01:32:58;;;;;;;7.97;5.97;;;;;;;14.21;78.17;102472.78;5097794;28;20469;-75
2022/07/18 01:35:26;;;;;;;7.38;6.30;;;;;;;14.21;78.53;102469.34;5097722;28;20497;-74
2022/07/18 01:37:56;;;;;;;6.95;6.25;;;;;;;14.18;78.22;102472.88;5097276;28;20048;-74
2022/07/18 01:40:23;;;;;;;8.00;6.50;;;;;;;14.11;79.21;102470.38;5097907;28;20044;-74
2022/07/18 01:42:50;;;;;;;9.70;5.63;;;;;;;14.07;78.43;102472.38;5098067;28;20053;-74
2022/07/18 01:45:17;;;;;;;7.13;5.47;;;;;;;13.99;78.49;102466.47;5097845;28;20059;-74
2022/07/18 01:47:44;;;;;;;5.93;5.32;;;;;;;13.97;77.86;102458.13;5097620;28;20040;-74
2022/07/18 01:50:11;;;;;;;10.45;5.97;;;;;;;13.89;78.53;102460.22;5097543;28;20041;-74
2022/07/18 01:52:38;;;;;;;6.85;6.15;;;;;;;13.86;79.17;102449.59;5097151;28;20106;-74
2022/07/18 01:55:07;;;;;;;6.00;5.55;;;;;;;13.87;78.26;102449.16;5097655;28;20426;-74
2022/07/18 01:57:34;;;;;;;7.70;6.15;;;;;;;13.84;78.43;102443.91;5097386;28;20049;-74
2022/07/18 02:00:00;;;;;;;9.32;5.90;;;;;;;13.78;78.62;102438.31;5097308;28;20118;-74
2022/07/18 02:02:30;;;;;;;6.53;5.80;;;;;;;13.71;79.57;102443.06;5096102;28;20056;-74
2022/07/18 02:04:59;;;;;;;6.72;6.00;;;;;;;13.65;79.96;102456.94;5097209;28;20049;-73
2022/07/18 02:07:44;;;;;;;7.43;5.45;;;;;;;13.69;78.17;102454.94;5097062;28;20048;-74
2022/07/18 02:10:13;;;;;;;7.00;6.07;;;;;;;13.70;78.22;102461.06;5097349;28;20049;-74
2022/07/18 02:12:40;;;;;;;14.07;6.15;;;;;;;13.64;79.40;102463.47;5097403;28;20048;-74
2022/07/18 02:15:10;;;;;;;6.63;6.03;;;;;;;13.63;78.89;102455.88;5097200;28;20072;-74
2022/07/18 02:17:37;;;;;;;8.20;5.55;;;;;;;13.57;79.37;102446.88;5096700;28;20049;-73
2022/07/18 02:20:06;;;;;;;9.57;6.38;;;;;;;13.55;79.37;102441.19;5097246;28;20520;-73
2022/07/18 02:22:33;;;;;;;6.00;5.50;;;;;;;13.55;79.39;102441.19;5097023;28;20060;-73
2022/07/18 02:25:00;;;;;;;6.57;5.85;;;;;;;13.52;79.40;102442.75;5097026;28;21007;-74
2022/07/18 02:27:27;;;;;;;6.82;6.13;;;;;;;13.48;79.64;102431.38;5096883;28;20056;-73
2022/07/18 02:29:54;;;;;;;6.75;6.15;;;;;;;13.47;79.65;102423.78;5079272;28;20061;-74
2022/07/18 02:32:22;;;;;;;6.93;6.30;;;;;;;13.44;80.63;102421.94;5096955;28;20045;-73
2022/07/18 02:34:49;;;;;;;11.55;6.13;;;;;;;13.43;80.42;102425.78;5079560;28;20044;-73
2022/07/18 02:37:17;;;;;;;7.25;6.15;;;;;;;13.39;79.66;102425.88;5097330;28;20053;-73
2022/07/18 02:39:43;;;;;;;7.38;6.18;;;;;;;13.33;80.05;102430.19;5096822;28;20052;-73
2022/07/18 02:42:10;;;;;;;6.50;5.90;;;;;;;13.26;80.42;102428.44;5096847;28;20049;-73
2022/07/18 02:44:37;;;;;;;10.75;6.90;;;;;;;13.21;81.24;102430.84;5099872;28;20143;-73
2022/07/18 02:47:03;;;;;;;7.70;6.15;;;;;;;13.19;80.77;102427.88;5100248;28;20060;-73
2022/07/18 02:49:31;;;;;;;6.82;6.05;;;;;;;13.12;81.30;102436.03;5082615;28;20087;-73
2022/07/18 02:52:04;;;;;;;8.50;6.32;;;;;;;13.12;80.95;102433.34;5100319;28;20056;-73
2022/07/18 02:54:33;;;;;;;6.93;6.05;;;;;;;13.11;80.66;102432.59;5100192;28;20110;-74
2022/07/18 02:57:00;;;;;;;9.98;6.40;;;;;;;13.10;80.21;102435.69;5100294;28;20048;-74
2022/07/18 02:59:27;;;;;;;10.70;6.72;;;;;;;13.08;80.49;102433.41;5100184;28;20106;-73
2022/07/18 03:01:55;;;;;;;7.53;6.82;;;;;;;13.10;80.29;102430.34;5099863;28;20056;-73
2022/07/18 03:04:22;;;;;;;11.57;6.28;;;;;;;13.08;80.63;102432.66;5100136;28;20048;-74
2022/07/18 03:06:49;;;;;;;7.25;6.45;;;;;;;13.06;81.14;102430.41;5100182;28;20048;-73
2022/07/18 03:09:16;;;;;;;11.52;6.57;;;;;;;13.02;81.26;102430.47;5100107;28;20052;-73
2022/07/18 03:11:43;;;;;;;7.05;6.35;;;;;;;12.99;81.02;102420.63;5099597;28;20055;-74
2022/07/18 03:14:10;;;;;;;6.18;5.68;;;;;;;12.98;80.98;102427.13;5100065;28;20045;-73
2022/07/18 03:16:37;;;;;;;9.70;5.93;;;;;;;12.96;81.05;102418.78;5100145;28;20053;-73
2022/07/18 03:19:03;;;;;;;9.95;6.00;;;;;;;12.94;81.07;102421.09;5100123;28;20052;-73
2022/07/18 03:21:30;;;;;;;6.50;5.90;;;;;;;12.94;80.70;102417.69;5100136;28;20049;-73
2022/07/18 03:23:56;;;;;;;7.75;6.25;;;;;;;12.94;80.97;102418.44;5099896;28;20051;-74
2022/07/18 03:26:23;;;;;;;6.63;5.93;;;;;;;12.92;80.83;102407.41;5099318;28;20126;-74
2022/07/18 03:28:50;;;;;;;7.55;5.97;;;;;;;12.89;81.06;102410.16;5099903;28;20056;-73
2022/07/18 03:31:16;;;;;;;7.25;6.38;;;;;;;12.86;81.98;102400.28;5099901;28;20098;-74
2022/07/18 03:33:43;;;;;;;9.45;5.85;;;;;;;12.83;81.93;102399.19;5100318;28;20076;-73
2022/07/18 03:36:10;;;;;;;7.38;6.25;;;;;;;12.81;81.66;102396.19;5099611;28;20091;-74
2022/07/18 03:38:37;;;;;;;7.25;5.75;;;;;;;12.81;81.01;102398.84;5099414;28;20401;-74
2022/07/18 03:41:04;;;;;;;8.07;6.10;;;;;;;12.78;81.59;102394.38;5080906;28;20066;-73
2022/07/18 03:43:30;;;;;;;9.23;5.97;;;;;;;12.73;81.95;102389.50;5099277;28;20044;-73
2022/07/18 03:45:57;;;;;;;6.78;6.18;;;;;;;12.71;82.00;102383.06;5099292;28;20045;-74
2022/07/18 03:48:24;;;;;;;8.68;5.82;;;;;;;12.69;81.94;102380.81;5099252;28;20060;-74
2022/07/18 03:50:50;;;;;;;6.80;6.20;;;;;;;12.69;82.02;102383.47;5099305;28;20053;-73
2022/07/18 03:53:17;;;;;;;9.80;6.22;;;;;;;12.69;82.41;102381.56;5099567;28;20045;-73
2022/07/18 03:55:44;;;;;;;8.68;6.40;;;;;;;12.66;82.73;102382.38;5098944;28;20067;-74
2022/07/18 03:58:10;;;;;;;8.95;5.88;;;;;;;12.68;81.69;102371.28;5099722;28;20541;-73
2022/07/18 04:00:37;;;;;;;11.93;7.03;;;;;;;12.69;81.79;102367.44;5099333;28;20056;-73
2022/07/18 04:03:03;;;;;;;12.25;7.63;;;;;;;12.68;82.79;102373.97;5098759;28;20118;-73
2022/07/18 04:05:31;;;;;;;16.80;8.52;;;;;;;12.61;81.40;102369.50;5099256;28;20106;-74
2022/07/18 04:07:57;;;;;;;16.05;8.85;;;;;;;12.60;82.21;102370.69;5099193;28;20125;-73
2022/07/18 04:10:24;;;;;;;18.40;9.45;;;;;;;12.56;82.09;102367.31;5099225;28;20059;-73
2022/07/18 04:12:52;;;;;;;16.52;8.93;;;;;;;12.56;81.86;102366.56;5099237;28;20052;-73
2022/07/18 04:15:21;;;;;;;19.27;9.30;;;;;;;12.57;82.60;102355.47;5099234;28;20053;-74
2022/07/18 04:17:48;;;;;;;19.33;9.50;;;;;;;12.61;82.44;102358.81;5099292;28;20494;-74
2022/07/18 04:20:15;;;;;;;20.02;9.40;;;;;;;12.63;82.39;102358.41;5099136;28;20056;-74
2022/07/18 04:22:57;;;;;;;13.70;8.63;;;;;;;12.63;81.67;102363.75;5098558;28;20052;-73
2022/07/18 04:25:28;;;;;;;14.50;7.97;;;;;;;12.63;82.13;102369.84;5098921;28;20052;-74
2022/07/18 04:27:56;;;;;;;12.10;7.33;;;;;;;12.59;82.98;102360.41;5098785;28;20061;-73
2022/07/18 04:30:25;;;;;;;11.23;7.28;;;;;;;12.65;82.39;102362.19;5098682;28;20116;-73
2022/07/18 04:32:52;;;;;;;7.40;6.53;;;;;;;12.65;82.58;102361.44;5081220;28;20079;-74
2022/07/18 04:35:20;;;;;;;10.57;7.15;;;;;;;12.69;83.01;102364.78;5098596;28;20585;-73
2022/07/18 04:37:47;;;;;;;10.13;7.18;;;;;;;12.71;82.63;102362.44;5098634;28;20124;-72
2022/07/18 04:40:13;;;;;;;8.52;7.13;;;;;;;12.76;82.69;102363.88;5098741;28;20451;-75
2022/07/18 04:42:40;;;;;;;9.43;6.70;;;;;;;12.84;82.56;102363.28;5098524;28;20056;-76
2022/07/18 04:45:07;;;;;;;9.18;6.63;;;;;;;12.90;81.89;102361.63;5098860;28;20052;-73
2022/07/18 04:47:34;;;;;;;13.02;6.43;;;;;;;13.12;81.43;102366.50;5098685;28;20056;-74
2022/07/18 04:50:01;;;;;;;7.30;6.50;;;;;;;13.47;80.25;102357.66;5098336;28;20041;-72
2022/07/18 04:52:36;;;;;;;9.07;6.45;;;;;;;13.54;80.89;102352.13;5098757;28;20048;-71
2022/07/18 04:55:03;;;;;;;7.07;6.13;;;;;;;13.75;79.76;102360.78;5098629;28;20051;-71
2022/07/18 04:57:29;;;;;;;10.70;6.85;;;;;;;14.09;78.39;102361.00;5098284;28;20055;-72
2022/07/18 04:59:56;;;;;;;13.50;7.50;;;;;;;14.58;76.90;102366.91;5098410;28;20053;-72
2022/07/18 05:02:22;;;;;;;11.52;6.78;;;;;;;14.95;75.30;102370.78;5097484;28;20057;-71
2022/07/18 05:04:49;;;;;;;9.77;6.85;;;;;;;15.24;74.38;102367.94;5098204;28;20048;-72
2022/07/18 05:07:15;;;;;;;9.13;7.03;;;;;;;16.10;71.64;102376.56;5097931;28;20064;-72
2022/07/18 05:09:42;;;;;;;13.20;8.20;;;;;;;17.92;65.21;102383.69;5098184;28;20055;-73
2022/07/18 05:12:09;;;;;;;26.90;7.20;;;;;;;19.44;60.03;102375.88;5098116;28;20060;-72
2022/07/18 05:14:36;;;;;;;17.33;7.22;;;;;;;18.71;60.78;102375.56;5098065;28;20048;-69
2022/07/18 05:17:04;;;;;;;14.43;6.97;;;;;;;17.60;64.58;102372.28;5097757;28;20064;-69
2022/07/18 05:19:31;;;;;;;8.50;6.60;;;;;;;16.95;67.46;102375.34;5098405;28;20059;-72
2022/07/18 05:21:57;;;;;;;20.17;7.05;;;;;;;16.49;69.00;102374.41;5098064;28;20178;-72
2022/07/18 05:24:24;;;;;;;14.23;6.93;;;;;;;16.34;70.44;102372.25;5097884;28;20048;-72
2022/07/18 05:26:50;;;;;;;11.85;7.28;;;;;;;16.18;71.55;102371.69;5097906;28;20057;-72
2022/07/18 05:29:17;;;;;;;19.05;7.75;;;;;;;16.22;71.06;102372.31;5097931;28;20083;-73
2022/07/18 05:31:44;;;;;;;20.60;7.40;;;;;;;16.68;70.53;102373.31;5097748;28;20485;-72
2022/07/18 05:34:10;;;;;;;14.00;7.60;;;;;;;17.68;66.77;102378.16;5098120;28;20536;-72
2022/07/18 05:36:37;;;;;;;11.50;7.30;;;;;;;19.70;60.54;102369.97;5097767;28;20056;-72
2022/07/18 05:39:04;;;;;;;10.95;6.95;;;;;;;20.93;56.06;102376.09;5097889;28;20041;-72
2022/07/18 05:41:30;;;;;;;8.50;7.03;;;;;;;21.87;53.49;102367.56;5097871;28;20052;-72
2022/07/18 05:43:57;;;;;;;8.27;6.63;;;;;;;22.71;50.82;102367.47;5097315;28;20115;-72
2022/07/18 05:46:23;;;;;;;10.55;6.93;;;;;;;23.31;49.15;102370.94;5097725;28;20063;-72
2022/07/18 05:48:51;;;;;;;8.77;7.10;;;;;;;23.83;46.87;102366.63;5097544;28;20052;-72
2022/07/18 05:51:19;;;;;;;10.25;7.05;;;;;;;24.16;46.08;102365.88;5097772;28;20049;-73
2022/07/18 05:53:46;;;;;;;8.85;6.78;;;;;;;24.32;47.12;102369.09;5097601;28;20481;-73
2022/07/18 05:56:13;;;;;;;10.45;7.30;;;;;;;24.08;47.28;102356.72;5097621;28;20052;-73
2022/07/18 05:58:39;;;;;;;12.27;7.25;;;;;;;23.57;46.30;102357.94;5097554;28;20140;-74
2022/07/18 06:01:16;;;;;;;12.15;6.70;;;;;;;23.31;47.58;102349.94;5097558;28;20135;-73
2022/07/18 06:03:43;;;;;;;14.60;8.15;;;;;;;22.98;49.33;102339.72;5079199;28;20411;-75
2022/07/18 06:06:10;;;;;;;19.30;7.70;;;;;;;22.53;48.20;102333.31;5097686;28;20052;-75
2022/07/18 06:08:36;;;;;;;9.05;7.55;;;;;;;22.61;48.50;102342.47;5097510;28;20055;-77
2022/07/18 06:11:03;;;;;;;11.77;7.22;;;;;;;22.55;49.04;102341.69;5097245;28;20057;-76
2022/07/18 06:13:30;;;;;;;21.08;7.82;;;;;;;22.71;48.93;102343.03;5097447;28;20045;-75
2022/07/18 06:15:57;;;;;;;9.57;6.82;;;;;;;22.47;50.71;102338.69;5079490;28;20065;-75
2022/07/18 06:18:23;;;;;;;12.45;6.47;;;;;;;22.33;49.61;102341.56;5096307;28;20509;-75
2022/07/18 06:20:50;;;;;;;13.20;7.00;;;;;;;22.05;50.21;102346.78;5097458;28;20059;-76
2022/07/18 06:23:16;;;;;;;20.33;7.50;;;;;;;21.92;51.48;102333.59;5097183;28;20053;-74
2022/07/18 06:25:43;;;;;;;15.07;6.97;;;;;;;21.91;51.44;102340.25;5097006;28;20052;-76
2022/07/18 06:28:09;;;;;;;12.00;7.30;;;;;;;21.95;52.33;102333.38;5096284;28;20051;-74
2022/07/18 06:30:36;;;;;;;14.30;7.32;;;;;;;22.15;52.70;102338.00;5097402;28;20033;-75
2022/07/18 06:33:05;;;;;;;8.27;6.25;;;;;;;22.09;52.56;102339.91;5097246;28;20053;-79
2022/07/18 06:35:32;;;;;;;12.00;6.57;;;;;;;22.17;52.43;102342.94;5097168;28;20044;-78
2022/07/18 06:37:58;;;;;;;10.85;6.50;;;;;;;22.19;52.92;102346.66;5063586;28;20048;-77
2022/07/18 06:40:25;;;;;;;7.82;6.65;;;;;;;22.08;52.35;102343.09;5096768;28;20044;-75
2022/07/18 06:42:52;;;;;;;11.50;6.13;;;;;;;22.13;53.03;102345.88;5097117;28;20048;-73
2022/07/18 06:45:19;;;;;;;11.93;6.15;;;;;;;22.28;51.46;102340.31;5079008;28;20110;-80
2022/07/18 06:47:49;;;;;;;10.93;6.05;;;;;;;22.44;52.16;102347.06;5078769;28;20045;-80
2022/07/18 06:50:16;;;;;;;12.05;5.90;;;;;;;22.53;51.67;102344.91;5097117;28;20055;-79
2022/07/18 06:52:44;;;;;;;11.38;5.80;;;;;;;22.47;51.70;102344.13;5096922;28;20473;-78
2022/07/18 06:55:12;;;;;;;7.28;5.72;;;;;;;22.63;50.25;102348.16;5080479;28;20122;-77
2022/07/18 06:57:40;;;;;;;13.88;6.20;;;;;;;22.55;50.46;102341.69;5096654;28;20044;-78
2022/07/18 07:00:09;;;;;;;12.32;5.90;;;;;;;22.55;50.36;102347.13;5096646;28;20053;-77
2022/07/18 07:02:49;;;;;;;8.05;5.20;;;;;;;22.71;50.92;102338.34;5095896;28;20059;-76
2022/07/18 07:05:18;;;;;;;8.43;5.07;;;;;;;22.81;50.13;102334.19;5078562;28;20052;-76
2022/07/18 07:07:45;;;;;;;17.38;5.53;;;;;;;22.81;50.44;102328.03;5096666;28;20045;-79
2022/07/18 07:10:15;;;;;;;11.40;5.28;;;;;;;22.99;51.02;102329.59;5094283;28;20048;-78
2022/07/18 07:12:46;;;;;;;10.55;6.18;;;;;;;23.10;50.34;102333.09;5098886;28;20461;-75
2022/07/18 07:15:14;;;;;;;5.72;5.22;;;;;;;23.06;51.17;102329.13;5099459;28;20044;-75
2022/07/18 07:17:41;;;;;;;8.27;5.07;;;;;;;23.31;49.93;102339.06;5116959;28;20054;-75
2022/07/18 07:20:08;;;;;;;8.60;4.40;;;;;;;23.46;49.13;102330.72;5116432;28;20051;-74
2022/07/18 07:23:06;;;;;;;8.07;4.57;;;;;;;23.61;49.10;102321.09;5117215;28;20439;-76
2022/07/18 07:25:37;;;;;;;9.70;4.40;;;;;;;23.69;47.40;102321.38;5098312;28;20079;-77
2022/07/18 07:28:04;;;;;;;6.72;3.47;;;;;;;23.57;47.56;102331.50;5116662;28;20048;-75
2022/07/18 07:30:32;;;;;;;4.15;3.42;;;;;;;23.62;47.78;102327.28;5119493;28;20055;-77
2022/07/18 07:33:00;;;;;;;11.82;3.55;;;;;;;23.90;48.47;102330.03;5120225;28;20059;-75
2022/07/18 07:35:27;;;;;;;4.57;3.45;;;;;;;24.00;45.93;102323.09;5120357;28;20052;-75
2022/07/18 07:37:58;;;;;;;5.57;3.58;;;;;;;24.02;45.16;102328.03;5120194;28;20040;-76
2022/07/18 07:40:28;;;;;;;4.72;2.78;;;;;;;24.12;44.80;102323.81;5120348;28;20461;-77
2022/07/18 07:43:09;;;;;;;7.70;2.80;;;;;;;24.29;45.10;102332.75;5119879;28;20393;-75
2022/07/18 07:45:36;;;;;;;4.90;2.90;;;;;;;24.48;44.31;102327.50;5120013;28;20040;-76
2022/07/18 07:48:04;;;;;;;5.97;2.85;;;;;;;24.62;43.90;102333.88;5120145;28;20450;-76
2022/07/18 07:50:31;;;;;;;4.90;2.70;;;;;;;24.69;43.05;102339.56;5120039;28;20052;-68
2022/07/18 07:53:00;;;;;;;3.90;3.10;;;;;;;25.02;43.18;102343.41;5120149;28;20075;-76
2022/07/18 07:55:28;;;;;;;8.35;2.85;;;;;;;25.11;42.36;102349.31;5118760;28;20478;-77
2022/07/18 07:57:58;;;;;;;4.32;2.67;;;;;;;25.29;42.47;102347.22;5117203;28;20044;-76
2022/07/18 08:00:25;;;;;;;4.88;3.45;;;;;;;25.23;41.76;102333.63;5119381;28;20051;-76
2022/07/18 08:02:54;;;;;;;5.43;2.83;;;;;;;25.32;42.50;102332.59;5118779;28;20052;-77
2022/07/18 08:05:28;;;;;;;6.47;2.83;;;;;;;25.50;41.77;102332.72;5115332;28;20048;-75
2022/07/18 08:07:56;;;;;;;3.45;3.03;;;;;;;25.50;42.32;102334.72;5117611;28;20051;-75
2022/07/18 08:10:23;;;;;;;10.38;2.60;;;;;;;25.72;42.82;102328.38;5118967;28;20067;-77
2022/07/18 08:12:50;;;;;;;6.15;3.15;;;;;;;25.63;43.00;102321.22;5119105;28;20493;-72
2022/07/18 08:15:16;;;;;;;6.43;2.85;;;;;;;25.59;42.63;102321.50;5118902;28;20059;-75
2022/07/18 08:17:43;;;;;;;2.58;2.42;;;;;;;25.65;42.34;102321.47;5118684;28;20493;-76
2022/07/18 08:20:16;;;;;;;8.70;2.97;;;;;;;25.74;42.33;102321.16;5098843;28;20102;-74
2022/07/18 08:22:54;;;;;;;10.90;2.72;;;;;;;25.77;42.71;102311.22;5118638;28;20048;-77
2022/07/18 08:25:21;;;;;;;5.50;2.60;;;;;;;26.14;41.67;102314.09;5082551;28;20060;-78
2022/07/18 08:27:49;;;;;;;5.30;2.60;;;;;;;26.42;41.14;102313.81;5098793;28;20041;-79
2022/07/18 08:30:16;;;;;;;8.02;2.60;;;;;;;26.55;40.34;102313.19;5117409;28;20055;-77
2022/07/18 08:32:43;;;;;;;5.18;2.70;;;;;;;26.84;41.21;102303.38;5111826;28;20052;-78
2022/07/18 08:35:12;;;;;;;2.80;2.50;;;;;;;27.12;40.33;102316.72;5097875;28;20044;-79
2022/07/18 08:37:39;;;;;;;9.45;2.80;;;;;;;27.13;38.81;102313.47;5118484;28;20052;-77
2022/07/18 08:40:07;;;;;;;8.38;2.92;;;;;;;27.35;39.63;102306.19;5116918;27;20059;-73
2022/07/18 08:42:35;;;;;;;5.38;3.13;;;;;;;27.53;37.79;102306.16;5118592;28;20040;-73
2022/07/18 08:45:11;;;;;;;4.68;2.22;;;;;;;27.70;38.91;102307.88;5118583;28;20139;-73
2022/07/18 08:47:38;;;;;;;4.03;2.60;;;;;;;27.87;37.11;102305.59;5113799;28;20044;-73
2022/07/18 08:50:05;;;;;;;3.42;2.33;;;;;;;28.02;37.95;102313.28;5118591;28;20050;-75
2022/07/18 08:52:32;;;;;;;3.85;2.55;;;;;;;28.16;37.37;102307.31;5118691;28;20051;-74
2022/07/18 08:55:18;;;;;;;5.70;2.38;;;;;;;28.33;36.34;102312.50;5118391;28;20463;-74
2022/07/18 08:57:54;;;;;;;8.10;2.65;;;;;;;28.73;36.91;102307.69;5117758;28;20044;-74
2022/07/18 09:00:21;;;;;;;5.40;2.60;;;;;;;29.04;34.65;102310.78;5118553;28;20044;-72
2022/07/18 09:03:03;;;;;;;6.72;2.33;;;;;;;29.20;35.58;102312.41;5118093;28;20056;-74
2022/07/18 09:05:31;;;;;;;8.98;2.70;;;;;;;29.35;34.77;102314.56;5118265;28;20557;-73
2022/07/18 09:08:12;;;;;;;3.67;2.20;;;;;;;29.24;34.96;102309.34;5117621;28;20113;-74
2022/07/18 09:10:51;;;;;;;2.88;2.58;;;;;;;29.06;35.03;102308.25;5118195;28;21676;-76
2022/07/18 09:13:21;;;;;;;6.38;2.90;;;;;;;29.03;33.97;102312.81;5114609;28;20044;-75
2022/07/18 09:16:10;;;;;;;7.80;3.40;;;;;;;28.68;34.29;102311.28;5092885;28;20076;-77
2022/07/18 09:18:43;;;;;;;4.47;2.13;;;;;;;28.51;34.98;102310.88;5116968;28;20051;-73
2022/07/18 09:21:14;;;;;;;6.20;2.60;;;;;;;28.53;36.95;102311.84;5099233;28;20083;-72
2022/07/18 09:23:43;;;;;;;4.25;2.40;;;;;;;28.83;35.52;102303.25;5118069;28;20048;-72
2022/07/18 09:26:11;;;;;;;3.90;2.25;;;;;;;29.09;33.27;102304.44;5117433;28;20509;-71
2022/07/18 09:28:53;;;;;;;3.75;2.70;;;;;;;28.92;34.10;102301.34;5117689;28;20044;-70
2022/07/18 09:31:48;;;;;;;3.60;2.47;;;;;;;28.60;35.14;102304.25;5116000;28;20056;-70
2022/07/18 09:34:32;;;;;;;6.50;2.92;;;;;;;28.47;35.58;102305.72;5117946;28;20238;-70
2022/07/18 09:36:59;;;;;;;2.60;2.40;;;;;;;28.37;36.89;102303.97;5117151;28;20048;-71
2022/07/18 09:39:25;;;;;;;6.65;2.45;;;;;;;28.24;35.66;102299.22;5117314;28;20071;-70
2022/07/18 09:41:52;;;;;;;7.05;2.45;;;;;;;28.24;36.32;102296.50;5116448;28;20044;-71
2022/07/18 09:44:20;;;;;;;3.47;2.58;;;;;;;28.29;34.29;102294.91;5117013;28;20439;-72
2022/07/18 09:47:03;;;;;;;2.40;2.20;;;;;;;28.59;35.22;102289.06;5116628;28;20074;-72
2022/07/18 09:49:32;;;;;;;6.28;2.80;;;;;;;28.52;33.82;102298.66;5113726;28;20528;-72
2022/07/18 09:52:07;;;;;;;4.97;2.40;;;;;;;28.30;35.64;102294.38;5098999;28;20462;-74
2022/07/18 09:54:38;;;;;;;6.63;2.67;;;;;;;28.15;34.24;102297.63;5115855;28;20108;-71
2022/07/18 09:57:05;;;;;;;7.35;2.60;;;;;;;28.10;35.14;102292.25;5114326;28;20413;-73
2022/07/18 09:59:32;;;;;;;5.40;2.63;;;;;;;28.05;36.50;102285.59;5117241;28;20074;-72
2022/07/18 10:01:59;;;;;;;3.47;2.80;;;;;;;28.37;34.64;102287.53;5116937;28;20479;-72
2022/07/18 10:04:26;;;;;;;3.45;2.25;;;;;;;28.89;34.31;102283.94;5118114;28;20148;-72
2022/07/18 10:06:53;;;;;;;6.65;2.60;;;;;;;29.31;32.46;102278.50;5117559;28;20056;-71
2022/07/18 10:09:19;;;;;;;4.72;2.50;;;;;;;29.60;30.67;102282.06;5117251;28;20052;-72
2022/07/18 10:11:46;;;;;;;3.65;2.42;;;;;;;30.05;32.63;102285.13;5117195;28;20052;-72
2022/07/18 10:14:13;;;;;;;9.40;3.08;;;;;;;30.12;31.63;102276.19;5117160;28;20052;-74
2022/07/18 10:16:41;;;;;;;6.18;3.53;;;;;;;30.45;33.39;102276.50;5116807;28;20386;-71
2022/07/18 10:19:07;;;;;;;8.40;4.07;;;;;;;30.52;31.65;102282.03;5117408;28;20048;-71
2022/07/18 10:21:34;;;;;;;4.43;2.95;;;;;;;30.67;31.74;102273.16;5116977;28;20040;-72
2022/07/18 10:24:01;;;;;;;6.53;2.80;;;;;;;30.68;31.95;102277.38;5117062;28;20566;-71
2022/07/18 10:26:29;;;;;;;5.78;2.90;;;;;;;30.95;28.49;102279.81;5116528;28;20516;-71
2022/07/18 10:28:55;;;;;;;5.90;2.67;;;;;;;31.14;27.56;102282.97;5117374;28;20490;-71
2022/07/18 10:31:33;;;;;;;3.75;3.00;;;;;;;31.21;30.17;102276.72;5117140;28;20136;-71
2022/07/18 10:34:06;;;;;;;7.70;2.45;;;;;;;31.28;28.05;102278.03;5116555;28;20044;-72
2022/07/18 10:37:00;;;;;;;4.18;2.45;;;;;;;31.15;27.33;102279.69;5116497;28;20055;-71
2022/07/18 10:39:47;;;;;;;3.67;2.28;;;;;;;31.35;27.92;102280.78;5102850;28;20065;-71
2022/07/18 10:42:15;;;;;;;3.40;2.60;;;;;;;31.43;26.81;102283.53;5112959;28;20052;-71
2022/07/18 10:44:42;;;;;;;2.28;2.08;;;;;;;31.36;27.32;102279.50;5095291;28;20053;-69
2022/07/18 10:47:23;;;;;;;4.50;2.40;;;;;;;31.60;26.61;102277.44;5115872;28;20059;-70
2022/07/18 10:49:49;;;;;;;9.85;2.33;;;;;;;31.64;26.07;102269.56;5113561;28;20055;-71
2022/07/18 10:52:24;;;;;;;5.47;2.60;;;;;;;31.60;27.55;102275.44;5116870;28;20098;-71
2022/07/18 10:55:06;;;;;;;10.07;2.83;;;;;;;31.60;27.61;102274.69;5112888;28;20051;-71
2022/07/18 10:57:40;;;;;;;5.57;2.50;;;;;;;31.78;28.11;102273.59;5113023;28;20052;-71
2022/07/18 11:00:33;;;;;;;3.70;2.38;;;;;;;32.16;28.60;102270.75;5116451;28;20113;-70
2022/07/18 11:03:00;;;;;;;4.82;4.43;;;;;;;32.04;27.63;102275.19;5116191;27;20430;-71
2022/07/18 11:05:26;;;;;;;2.65;2.33;;;;;;;32.17;26.60;102267.44;5119571;28;20048;-69
2022/07/18 11:08:02;;;;;;;4.55;2.30;;;;;;;32.00;27.73;102267.28;5119807;28;20058;-69
2022/07/18 11:10:40;;;;;;;2.60;2.22;;;;;;;32.42;27.60;102264.78;5117343;28;20472;-70
2022/07/18 11:13:41;;;;;;;3.97;2.28;;;;;;;32.60;27.54;102264.88;5120164;28;20059;-70
2022/07/18 11:16:11;;;;;;;;;;;;;;;32.83;28.44;102262.72;5090772;28;20064;-70
2022/07/18 11:18:40;;;;;;;8.75;2.70;;;;;;;32.57;26.45;102257.72;5120150;28;19985;-69
2022/07/18 11:21:22;;;;;;;4.55;2.60;;;;;;;32.74;27.37;102252.31;5120106;28;20044;-70
2022/07/18 11:24:06;;;;;;;3.92;2.85;;;;;;;32.63;27.42;102253.47;5120241;28;20508;-71
2022/07/18 11:26:35;;;;;;;7.72;2.53;;;;;;;32.71;27.88;102245.88;5116738;28;20051;-70
2022/07/18 11:29:04;;;;;;;8.57;2.70;;;;;;;32.72;26.97;102252.13;5120155;28;20064;-70
2022/07/18 11:31:47;;;;;;;6.90;3.08;;;;;;;32.67;27.59;102240.03;5119971;28;20044;-68
2022/07/18 11:34:14;;;;;;;6.55;2.83;;;;;;;32.89;25.41;102243.94;5118232;28;20514;-69
2022/07/18 11:36:43;;;;;;;2.92;2.42;;;;;;;33.11;25.62;102242.31;5119094;28;20507;-69